KMJX

Details ICAO KMJX
Name ROBERT J MILLER AIR PARK
Region United States
Timezone America/New_York (UTC-5.0)
Plans Departing 7
Arriving 5
Stats Elevation 82 ft / 25 m (AMSL)
Location 39.927497° -74.292378°
Runways 1
Magnetic Variation 12.570° W
Sunrise 2017-12-18 12:15:06 UTC / 2017-12-18 07:15:06 Local
Sunset 2017-12-18 21:35:22 UTC / 2017-12-18 16:35:22 Local
Advertisement - Login to hide

Runways

ID Width Length Bearing (true) Bearing (mag) Surface Threshold Offset Overrun Length
06 98 ft / 30 m 5,945 ft / 1,812 m 49.73° 62.30° Asphalt 0 ft / 0 m 148 ft / 45 m
24 98 ft / 30 m 5,945 ft / 1,812 m 229.74° 242.31° Asphalt 0 ft / 0 m 0 ft / 0 m

Approach Navaids

Runway Type Ident Frequency Range Bearing (true) Bearing (mag) Slope Elevation
06 Localiser IMJX 109.90 MHz 18 nm / 33 km 49.75° 62.32° - 82 ft / 25 m (AMSL)
06 Glidescope IMJX 109.90 MHz 10 nm / 19 km 49.74° 62.31° 3.00° 82 ft / 25 m (AMSL)

Map

Weather


0- 5 10 15 20 25 30 35+ Temperature / ° C

Clouds and Precipitation
Forecast for 2017-12-18 06:00 UTC. Updated 20 minutes ago

Ground ~20,000 ft ~40,000 ft Winds

METAR

KMJX 180456Z AUTO 00000KT 10SM OVC095 01/00 A3018 RMK AO2 SLP225 T00110000 400671039 FZRANO

TAF

Not found

Frequencies

Recorded 119.87 MHz AWOS 3
Approach 124.15 MHz MC GUIRE APP/DEP
Unicom 122.70 MHz CTAF
Warning: Do not use this data for real-world aviation or navigation. No guarantee of current accuracy is given.